Aeroporto :
LOGIN :

Iscrizione | Disclaimer

   EN    FR    IT 

 










Sommario :    VFR   VFR Marginale   IFR   IFR Intensivo   IFR Molto Intensivo
Visibilità : 
Base nubi : 
>= 8 km
>= 3000ft
5 / 8 km
1000 / 3000 ft
1500m / 5 km
500 / 1000 ft
800 / 1500m
200 / 500 ft
< 800m
< 200 ft
Simboli :   Temporali  Nebbia  Neve Forte  Precipitazioni Forti  Vento > 20 kt
SIGMETs :   Varie  Temporali  Ghiacco  Turbolenza  Onda orograficha  Ceneri Vulcaniche






- Altitudine del aeroporto : 32 ft
- Codice IATA : LKZ


EGUL - RAF Lakenheath

ULTIMO METAR :
  • 150223Z AUTO 23024KT 9999 FEW037 FEW090 07/04 A2907 RMK AO2 RAB14E23 SLP848 $

METARs OBSOLETI :
  • 150156Z AUTO 22015KT 9999 FEW023 FEW036 SCT090 07/04 A2907 RMK AO2 PK WND 23029/01 RAE10RAB27E38 SLP848 P0001 T00650040 $
  • 150138Z AUTO 23015KT 9999 FEW023 07/04 A2906 RMK AO2 RAE10RAB27E38 SLP844 $
  • 150127Z AUTO 22013KT 9999 -RA FEW023 07/04 A2906 RMK AO2 RAE10RAB27 SLP844 $
  • 150110Z AUTO 23017G29KT 9999 CLR 07/04 A2907 RMK AO2 RAE10 SLP848 $
  • 150056Z AUTO 22018G26KT 9999 -RA SCT016 07/04 A2908 RMK AO2 PK WND 22026/48 RAE2356RAB13E26RAB42 SLP851 P0002 T00690042 $
  • 150052Z AUTO 22019G26KT 9999 -RA SCT016 07/04 A2907 RMK AO2 RAE2356RAB13E26RAB42 SLP848 $
  • 150031Z AUTO 21020G26KT 9999 BKN021 BKN033 07/05 A2908 RMK AO2 RAE2356RAB13E26 CIG 018V033 SLP851 $
  • 150013Z AUTO 21013G22KT 9999 -RA FEW033 08/05 A2908 RMK AO2 RAE2356RAB13 SLP851 $
  • 142357Z AUTO 20013G21KT 9999 CLR 08/05 A2909 RMK AO2 RAE56 SLP855 $
  • 142355Z AUTO 21014G21KT 9999 -RA FEW090 08/05 A2909 RMK AO2 RAB08E18RAB55 SLP855 $

Previsioni scadute.



MetMap, La meteo Aeronautica in un colpo d'occhio ! - Copyright ORBIFLY Dicembre 2007 - Disclaimer

ORBIFLY MET'MAP TEAM :

Programmazione e sviluppo : Alexandra Zaïnal
Concezione : Baudouin d'Aumeries
Aiuto per la programmazione : Marc-Olivier Méhu
Supporto tecnico e logistico : Manuel Goepfert
Aiuto per la traduzione : Arnaldo La Scala

Contatto : metmap@orbifly.com




FONTI E CREDITI :

   NOAA